createdAt,value
2022-10-17T00:04:44.275Z,11.20
2022-10-17T00:09:51.159Z,11.20
2022-10-17T00:14:56.651Z,11.14
2022-10-17T00:20:00.886Z,11.12
2022-10-17T00:25:07.397Z,11.20
2022-10-17T00:30:13.801Z,11.21
2022-10-17T00:35:23.655Z,11.15
2022-10-17T00:40:29.623Z,11.10
2022-10-17T00:45:32.902Z,11.07
2022-10-17T00:50:49.398Z,11.09
2022-10-17T00:55:54.481Z,11.10
2022-10-17T01:01:01.038Z,10.94
2022-10-17T01:06:04.416Z,10.76
2022-10-17T01:11:31.985Z,10.65
2022-10-17T01:17:17.056Z,10.59
2022-10-17T01:22:57.069Z,10.58
2022-10-17T01:28:06.746Z,10.53
2022-10-17T01:33:35.678Z,10.56
2022-10-17T01:38:53.788Z,10.59
2022-10-17T01:44:06.004Z,10.56
2022-10-17T01:49:11.605Z,10.56
2022-10-17T01:54:19.904Z,10.51
2022-10-17T01:59:31.628Z,10.45
2022-10-17T02:04:35.715Z,10.34
2022-10-17T02:09:41.282Z,10.24
2022-10-17T02:15:09.224Z,10.21
2022-10-17T02:20:21.986Z,10.29
2022-10-17T02:25:42.602Z,10.49
2022-10-17T02:31:01.106Z,10.54
2022-10-17T02:36:12.099Z,10.50
2022-10-17T02:41:18.231Z,10.51
2022-10-17T02:46:23.816Z,10.51
2022-10-17T02:51:27.160Z,10.41
2022-10-17T02:56:36.238Z,10.43
2022-10-17T03:01:40.824Z,10.42
2022-10-17T03:06:46.605Z,10.39
2022-10-17T03:11:51.298Z,10.40
2022-10-17T03:16:59.301Z,10.36
2022-10-17T03:22:03.356Z,10.26
2022-10-17T03:27:09.265Z,10.08
2022-10-17T03:32:13.242Z,10.08
2022-10-17T03:37:16.573Z,10.15
2022-10-17T03:42:21.896Z,10.15
2022-10-17T03:47:25.391Z,10.11
2022-10-17T03:52:28.779Z,10.08
2022-10-17T03:57:32.482Z,10.11
2022-10-17T04:02:37.441Z,10.12
2022-10-17T04:07:41.082Z,10.10
2022-10-17T04:12:45.680Z,10.10
2022-10-17T04:17:54.313Z,10.03
2022-10-17T04:22:58.802Z,9.99
2022-10-17T04:28:02.235Z,9.98
2022-10-17T04:33:07.464Z,9.98
2022-10-17T04:38:10.845Z,9.97
2022-10-17T04:43:14.593Z,9.94
2022-10-17T04:48:21.401Z,9.93
2022-10-17T04:53:25.108Z,9.92
2022-10-17T04:58:30.471Z,9.88
2022-10-17T05:03:34.768Z,9.85
2022-10-17T05:08:38.905Z,9.81
2022-10-17T05:13:43.133Z,9.77
2022-10-17T05:18:53.024Z,9.79
2022-10-17T05:23:58.233Z,9.82
2022-10-17T05:29:03.312Z,9.83
2022-10-17T05:34:13.183Z,9.84
2022-10-17T05:39:20.115Z,9.89
2022-10-17T05:44:24.410Z,9.97
2022-10-17T05:49:45.988Z,10.09
2022-10-17T05:54:53.338Z,10.22
2022-10-17T06:00:01.354Z,10.33
2022-10-17T06:05:19.401Z,10.46
2022-10-17T06:10:23.907Z,10.60
2022-10-17T06:15:30.274Z,10.74
2022-10-17T06:20:45.357Z,10.90
2022-10-17T06:25:58.239Z,11.04
2022-10-17T06:31:13.518Z,11.20
2022-10-17T06:36:19.543Z,11.40
2022-10-17T06:41:26.551Z,11.62
2022-10-17T06:46:33.509Z,11.85
2022-10-17T06:51:40.364Z,12.09
2022-10-17T06:56:47.636Z,12.33
2022-10-17T07:02:13.052Z,12.60
2022-10-17T07:07:19.678Z,12.87
2022-10-17T07:12:24.585Z,13.09
2022-10-17T07:17:28.105Z,13.32
2022-10-17T07:22:34.439Z,13.56
2022-10-17T07:27:38.434Z,13.78
2022-10-17T07:32:43.323Z,13.98
2022-10-17T07:37:46.917Z,14.16
2022-10-17T07:42:52.949Z,14.37
2022-10-17T07:47:58.233Z,14.55
2022-10-17T07:53:01.719Z,14.78
2022-10-17T07:58:05.003Z,14.99
2022-10-17T08:03:08.946Z,15.22
2022-10-17T08:08:17.340Z,15.50
2022-10-17T08:13:21.545Z,15.79
2022-10-17T08:18:25.531Z,16.07
2022-10-17T08:23:31.686Z,16.39
2022-10-17T08:28:37.308Z,16.71
2022-10-17T08:33:41.944Z,17.07
2022-10-17T08:38:50.331Z,17.36
2022-10-17T08:44:23.215Z,17.65
2022-10-17T08:49:53.350Z,17.96
2022-10-17T08:54:57.088Z,18.20
2022-10-17T09:00:00.558Z,18.45
2022-10-17T09:05:10.553Z,18.65
2022-10-17T09:10:24.483Z,18.83
2022-10-17T09:15:58.541Z,19.07
2022-10-17T09:21:10.857Z,19.26
2022-10-17T09:26:17.215Z,19.48
2022-10-17T09:31:49.983Z,19.72
2022-10-17T09:36:54.131Z,19.92
2022-10-17T09:42:02.376Z,20.09
2022-10-17T09:47:42.030Z,20.27
2022-10-17T09:52:50.987Z,20.53
2022-10-17T09:58:00.904Z,20.61
2022-10-17T10:03:22.406Z,20.72
2022-10-17T10:08:35.675Z,20.92
2022-10-17T10:13:38.978Z,21.08
2022-10-17T10:18:42.547Z,21.18
2022-10-17T10:24:02.661Z,21.36
2022-10-17T10:29:31.104Z,21.53
2022-10-17T10:34:36.241Z,21.76
2022-10-17T10:39:58.113Z,22.03
2022-10-17T10:45:43.289Z,22.22
2022-10-17T10:51:06.412Z,22.41
2022-10-17T10:56:21.956Z,22.60
2022-10-17T11:01:35.848Z,22.74
2022-10-17T11:06:42.880Z,22.94
2022-10-17T11:12:02.243Z,23.15
2022-10-17T11:17:11.456Z,23.35
2022-10-17T11:22:39.773Z,23.38
2022-10-17T11:27:43.067Z,23.43
2022-10-17T11:33:01.938Z,23.67
2022-10-17T11:38:19.290Z,23.76
2022-10-17T11:43:44.746Z,23.70
2022-10-17T11:49:01.884Z,23.88
2022-10-17T11:54:11.234Z,24.07
2022-10-17T11:59:41.411Z,24.15
2022-10-17T12:04:55.028Z,24.19
2022-10-17T12:10:17.166Z,24.17
2022-10-17T12:15:26.873Z,24.26
2022-10-17T12:20:32.487Z,24.27
2022-10-17T12:30:58.717Z,24.04
2022-10-17T12:36:17.484Z,23.95
2022-10-17T12:41:39.361Z,23.91
2022-10-17T12:47:04.299Z,23.95
2022-10-17T12:52:32.787Z,24.02
2022-10-17T12:57:42.871Z,24.13
2022-10-17T13:02:51.965Z,24.19
2022-10-17T13:07:56.846Z,24.20
2022-10-17T13:13:08.984Z,24.23
2022-10-17T13:18:19.614Z,24.15
2022-10-17T13:23:27.002Z,24.07
2022-10-17T13:28:39.678Z,24.06
2022-10-17T13:33:43.209Z,24.03
2022-10-17T13:38:56.225Z,23.94
2022-10-17T13:44:04.335Z,23.89
2022-10-17T13:49:25.976Z,23.80
2022-10-17T13:54:35.750Z,23.74
2022-10-17T13:59:41.767Z,23.68
2022-10-17T14:05:15.271Z,23.61
2022-10-17T14:10:37.239Z,23.54
2022-10-17T14:15:46.128Z,23.41
2022-10-17T14:26:22.918Z,23.26
2022-10-17T14:31:34.547Z,23.17
2022-10-17T14:36:38.479Z,23.14
2022-10-17T14:41:46.089Z,23.05
2022-10-17T14:46:54.720Z,22.96
2022-10-17T14:52:19.256Z,22.84
2022-10-17T14:57:35.744Z,22.70
2022-10-17T15:02:47.277Z,22.53
2022-10-17T15:07:53.779Z,22.39
2022-10-17T15:13:26.072Z,22.15
2022-10-17T15:18:26.936Z,21.87
2022-10-17T15:23:30.721Z,21.61
2022-10-17T15:28:36.448Z,21.37
2022-10-17T15:33:41.257Z,21.11
2022-10-17T15:38:48.742Z,20.82
2022-10-17T15:43:56.375Z,20.49
2022-10-17T15:49:07.760Z,20.15
2022-10-17T15:59:26.504Z,19.55
2022-10-17T16:04:41.081Z,19.26
2022-10-17T16:09:46.586Z,18.93
2022-10-17T16:14:51.438Z,18.61
2022-10-17T16:20:04.667Z,18.37
2022-10-17T16:25:33.747Z,18.10
2022-10-17T16:30:58.839Z,17.91
2022-10-17T16:36:07.138Z,17.76
2022-10-17T16:41:33.763Z,17.70
2022-10-17T16:46:45.232Z,17.62
2022-10-17T16:52:01.130Z,17.47
2022-10-17T16:57:05.322Z,17.37
2022-10-17T17:02:30.208Z,17.25
2022-10-17T17:07:49.602Z,17.15
2022-10-17T17:13:15.095Z,17.03
2022-10-17T17:18:43.265Z,17.01
2022-10-17T17:23:58.821Z,16.81
2022-10-17T17:29:18.084Z,16.61
2022-10-17T17:34:27.338Z,16.43
2022-10-17T17:39:34.513Z,16.33
2022-10-17T17:44:39.908Z,16.24
2022-10-17T17:49:43.385Z,16.16
2022-10-17T17:54:49.747Z,16.19
2022-10-17T17:59:56.800Z,16.21
2022-10-17T18:05:01.687Z,16.18
2022-10-17T18:15:22.206Z,16.27
2022-10-17T18:20:28.189Z,16.33
2022-10-17T18:25:40.031Z,16.39
2022-10-17T18:30:44.389Z,16.50
2022-10-17T18:35:49.552Z,16.53
2022-10-17T18:41:03.248Z,16.49
2022-10-17T18:46:15.092Z,16.48
2022-10-17T18:51:26.787Z,16.46
2022-10-17T18:56:33.583Z,16.38
2022-10-17T19:01:36.987Z,16.37
2022-10-17T19:06:43.382Z,16.40
2022-10-17T19:11:47.093Z,16.35
2022-10-17T19:16:51.953Z,16.25
2022-10-17T19:21:55.566Z,16.15
2022-10-17T19:27:05.604Z,16.04
2022-10-17T19:32:15.629Z,15.94
2022-10-17T19:37:21.910Z,15.88
2022-10-17T19:42:26.330Z,15.79
2022-10-17T19:47:29.786Z,15.79
2022-10-17T19:52:47.679Z,15.76
2022-10-17T19:57:52.714Z,15.64
2022-10-17T20:02:57.146Z,15.45
2022-10-17T20:08:03.791Z,15.23
2022-10-17T20:13:10.179Z,15.02
2022-10-17T20:18:13.454Z,14.87
2022-10-17T20:23:17.298Z,14.79
2022-10-17T20:28:21.147Z,14.69
2022-10-17T20:33:31.733Z,14.67
2022-10-17T20:38:40.287Z,14.73
2022-10-17T20:43:46.226Z,14.74
2022-10-17T20:48:56.159Z,14.57
2022-10-17T20:54:04.406Z,14.35
2022-10-17T20:59:13.409Z,14.17
2022-10-17T21:09:42.760Z,14.08
2022-10-17T21:14:47.481Z,13.94
2022-10-17T21:20:00.220Z,13.96
2022-10-17T21:25:04.288Z,14.14
2022-10-17T21:30:23.290Z,14.05
2022-10-17T21:35:33.912Z,13.93
2022-10-17T21:40:55.324Z,13.96
2022-10-17T21:46:20.896Z,13.87
2022-10-17T21:51:40.264Z,13.64
2022-10-17T21:56:54.536Z,13.46
2022-10-17T22:02:01.724Z,13.39
2022-10-17T22:07:11.822Z,13.30
2022-10-17T22:12:15.473Z,13.20
2022-10-17T22:17:18.787Z,13.11
2022-10-17T22:22:22.507Z,13.04
2022-10-17T22:27:25.861Z,12.97
2022-10-17T22:32:29.181Z,13.08
2022-10-17T22:37:32.741Z,13.05
2022-10-17T22:42:36.938Z,12.99
2022-10-17T22:47:40.415Z,12.96
2022-10-17T22:52:43.605Z,12.86
2022-10-17T22:57:47.437Z,12.78
2022-10-17T23:02:54.417Z,12.61
2022-10-17T23:07:57.793Z,12.57
2022-10-17T23:13:01.087Z,12.49
2022-10-17T23:18:07.044Z,12.31
2022-10-17T23:23:10.996Z,12.08
2022-10-17T23:28:21.521Z,11.82
2022-10-17T23:33:25.055Z,11.65
2022-10-17T23:38:28.378Z,11.49
2022-10-17T23:43:32.049Z,11.44
2022-10-17T23:48:35.607Z,11.32
2022-10-17T23:53:39.675Z,11.19
2022-10-17T23:58:43.023Z,11.07
